Time;durP1;ratioP1;P1;durP2;ratioP2;P2;SDS_P1;SDS_P2;PMS_P1;PMS_P2;Temp;Humidity;BMP_temperature;BMP_pressure;BME280_temperature;BME280_humidity;BME280_pressure;Samples;Min_cycle;Max_cycle;Signal;HPM_P1;HPM_P2
2021/10/12 00:01:17;;;;;;;8.82;3.10;;;8.50;99.90;;;;;;5036864;28;20037;-71
2021/10/12 00:03:44;;;;;;;8.45;3.17;;;8.50;99.90;;;;;;5036586;28;20057;-72
2021/10/12 00:06:12;;;;;;;7.30;3.22;;;8.50;99.90;;;;;;5036793;28;20409;-72
2021/10/12 00:08:40;;;;;;;9.70;3.72;;;8.60;99.90;;;;;;5037349;28;20030;-72
2021/10/12 00:11:08;;;;;;;11.02;3.38;;;8.60;99.90;;;;;;5036708;28;20096;-72
2021/10/12 00:13:36;;;;;;;6.47;3.35;;;8.60;99.90;;;;;;5037197;28;20021;-72
2021/10/12 00:16:04;;;;;;;14.27;4.00;;;8.60;99.90;;;;;;5038109;28;20013;-72
2021/10/12 00:18:32;;;;;;;9.50;3.47;;;8.60;99.90;;;;;;5037883;28;20032;-71
2021/10/12 00:20:59;;;;;;;9.00;3.15;;;8.60;99.90;;;;;;5037563;28;20070;-71
2021/10/12 00:23:26;;;;;;;10.38;3.53;;;8.60;99.90;;;;;;5037481;28;20026;-71
2021/10/12 00:25:53;;;;;;;9.25;3.00;;;8.60;99.90;;;;;;5036544;28;20025;-72
2021/10/12 00:28:20;;;;;;;12.68;4.00;;;8.60;99.90;;;;;;5037337;28;20032;-72
2021/10/12 00:30:48;;;;;;;9.93;4.10;;;8.50;99.90;;;;;;5037988;28;20018;-72
2021/10/12 00:33:16;;;;;;;13.88;3.90;;;8.50;99.90;;;;;;5035907;28;20030;-72
2021/10/12 00:35:43;;;;;;;9.15;3.72;;;8.50;99.90;;;;;;5035529;28;20052;-72
2021/10/12 00:38:10;;;;;;;13.98;4.30;;;8.50;99.90;;;;;;5036406;28;20024;-72
2021/10/12 00:40:38;;;;;;;10.30;4.38;;;8.50;99.90;;;;;;5036970;28;20029;-72
2021/10/12 00:43:06;;;;;;;11.50;4.82;;;8.50;99.90;;;;;;5035256;28;20059;-72
2021/10/12 00:45:35;;;;;;;14.82;4.82;;;8.50;99.90;;;;;;5036480;28;20017;-72
2021/10/12 00:48:07;;;;;;;14.63;4.75;;;8.50;99.90;;;;;;5036774;28;20411;-72
2021/10/12 00:50:38;;;;;;;10.60;4.43;;;8.50;99.90;;;;;;5036213;28;20028;-72
2021/10/12 00:53:06;;;;;;;13.75;5.72;;;8.50;99.90;;;;;;5035120;28;20021;-72
2021/10/12 00:55:34;;;;;;;12.07;5.28;;;8.50;99.90;;;;;;5035479;28;20025;-72
2021/10/12 00:58:01;;;;;;;11.30;5.05;;;8.60;99.90;;;;;;5037149;28;20036;-71
2021/10/12 01:00:30;;;;;;;13.20;5.15;;;8.60;99.90;;;;;;5037436;28;20317;-72
2021/10/12 01:02:57;;;;;;;13.00;4.93;;;8.60;99.90;;;;;;5037386;28;20099;-72
2021/10/12 01:05:25;;;;;;;14.02;5.00;;;8.60;99.90;;;;;;5037171;28;20025;-72
2021/10/12 01:07:52;;;;;;;12.45;5.50;;;8.60;99.90;;;;;;5035891;28;20108;-72
2021/10/12 01:10:20;;;;;;;24.80;5.70;;;8.70;99.90;;;;;;5035934;28;20018;-72
2021/10/12 01:12:47;;;;;;;11.77;4.70;;;8.70;99.90;;;;;;5037539;28;20049;-72
2021/10/12 01:15:14;;;;;;;10.45;4.97;;;8.70;99.90;;;;;;5036214;28;20299;-72
2021/10/12 01:17:42;;;;;;;13.63;5.65;;;8.70;99.90;;;;;;5036295;28;20076;-72
2021/10/12 01:20:12;;;;;;;12.10;6.70;;;8.70;99.90;;;;;;5034884;28;20021;-72
2021/10/12 01:22:42;;;;;;;11.73;5.38;;;8.70;99.90;;;;;;5036723;28;20337;-72
2021/10/12 01:25:10;;;;;;;14.48;4.60;;;8.70;99.90;;;;;;5034963;28;20025;-72
2021/10/12 01:27:38;;;;;;;11.95;5.18;;;8.70;99.90;;;;;;5034823;28;20025;-72
2021/10/12 01:30:07;;;;;;;13.32;5.10;;;8.70;99.90;;;;;;5036123;28;20050;-72
2021/10/12 01:32:40;;;;;;;16.50;5.18;;;8.70;99.90;;;;;;5039297;28;20021;-72
2021/10/12 01:35:08;;;;;;;11.70;5.90;;;8.70;99.90;;;;;;5038403;28;20036;-72
2021/10/12 01:37:37;;;;;;;15.75;5.43;;;8.70;99.90;;;;;;5040174;28;20022;-72
2021/10/12 01:40:06;;;;;;;12.73;5.28;;;8.80;99.90;;;;;;5040772;28;20104;-72
2021/10/12 01:42:34;;;;;;;14.32;4.88;;;8.80;99.90;;;;;;5040653;28;20399;-72
2021/10/12 01:45:03;;;;;;;13.07;5.18;;;8.80;99.90;;;;;;5039262;28;20033;-72
2021/10/12 01:47:30;;;;;;;11.60;4.93;;;8.80;99.90;;;;;;5040752;28;20053;-69
2021/10/12 01:49:57;;;;;;;18.00;6.03;;;8.80;99.90;;;;;;5039244;28;20021;-71
2021/10/12 01:52:26;;;;;;;10.85;4.63;;;8.80;99.90;;;;;;5040676;28;20033;-72
2021/10/12 01:54:54;;;;;;;14.35;5.13;;;8.80;99.90;;;;;;5040190;28;20107;-72
2021/10/12 01:57:22;;;;;;;11.90;4.45;;;8.90;99.90;;;;;;5040007;28;20413;-69
2021/10/12 01:59:50;;;;;;;10.35;4.55;;;8.90;99.90;;;;;;5039289;28;20413;-69
2021/10/12 02:02:17;;;;;;;12.10;4.78;;;8.90;99.90;;;;;;5039605;28;20021;-69
2021/10/12 02:04:44;;;;;;;6.72;4.35;;;8.90;99.90;;;;;;5038897;28;20056;-69
2021/10/12 02:07:12;;;;;;;9.10;4.03;;;8.90;99.90;;;;;;5038822;28;20032;-69
2021/10/12 02:09:40;;;;;;;7.15;4.00;;;8.90;99.90;;;;;;5039102;28;20025;-69
2021/10/12 02:12:07;;;;;;;8.07;4.32;;;9.00;99.90;;;;;;5037751;28;20405;-69
2021/10/12 02:14:36;;;;;;;11.35;5.00;;;9.00;99.90;;;;;;5037705;28;20517;-69
2021/10/12 02:17:04;;;;;;;13.82;4.97;;;9.00;99.90;;;;;;5039322;28;20104;-69
2021/10/12 02:19:31;;;;;;;9.05;5.75;;;9.00;99.90;;;;;;5039123;28;20112;-69
2021/10/12 02:21:58;;;;;;;10.25;3.95;;;9.00;99.90;;;;;;5039958;28;20028;-69
2021/10/12 02:24:26;;;;;;;9.60;5.00;;;9.00;99.90;;;;;;5040024;28;20072;-69
2021/10/12 02:26:53;;;;;;;10.00;4.40;;;9.00;99.90;;;;;;5039943;28;20022;-69
2021/10/12 02:29:20;;;;;;;10.52;4.60;;;9.00;99.90;;;;;;5039011;28;20021;-69
2021/10/12 02:31:47;;;;;;;6.10;4.13;;;9.00;99.90;;;;;;5040205;28;20326;-72
2021/10/12 02:34:14;;;;;;;8.45;3.75;;;9.00;99.90;;;;;;5039830;28;20029;-72
2021/10/12 02:36:41;;;;;;;11.10;3.88;;;9.00;99.90;;;;;;5039353;28;20041;-72
2021/10/12 02:39:09;;;;;;;8.05;4.18;;;9.00;99.90;;;;;;5039826;28;20118;-72
2021/10/12 02:41:36;;;;;;;11.65;4.55;;;9.00;99.90;;;;;;5038491;28;20021;-71
2021/10/12 02:44:04;;;;;;;7.95;4.22;;;9.00;99.90;;;;;;5037816;28;20123;-72
2021/10/12 02:46:32;;;;;;;8.80;4.65;;;9.00;99.90;;;;;;5038170;28;20025;-72
2021/10/12 02:49:00;;;;;;;10.73;4.10;;;9.00;99.90;;;;;;5038162;28;20132;-72
2021/10/12 02:51:28;;;;;;;7.45;4.32;;;9.00;99.90;;;;;;5038687;28;20021;-69
2021/10/12 02:53:56;;;;;;;14.10;4.13;;;9.00;99.90;;;;;;5038264;28;20021;-69
2021/10/12 02:56:23;;;;;;;13.73;4.03;;;9.00;99.90;;;;;;5038068;28;20349;-69
2021/10/12 02:58:51;;;;;;;10.38;4.88;;;9.10;99.90;;;;;;5038031;28;20183;-69
2021/10/12 03:01:19;;;;;;;7.13;3.78;;;9.00;99.90;;;;;;5037928;28;20029;-69
2021/10/12 03:03:46;;;;;;;7.60;3.70;;;9.10;99.90;;;;;;5038756;28;20327;-69
2021/10/12 03:06:14;;;;;;;9.20;3.58;;;9.00;99.90;;;;;;5038745;28;20048;-69
2021/10/12 03:08:42;;;;;;;7.18;3.00;;;9.10;99.90;;;;;;5038693;28;20452;-69
2021/10/12 03:11:09;;;;;;;11.18;3.72;;;9.10;99.90;;;;;;5038678;28;20048;-72
2021/10/12 03:13:36;;;;;;;8.60;3.25;;;9.10;99.90;;;;;;5038855;28;20299;-72
2021/10/12 03:16:05;;;;;;;8.20;3.35;;;9.10;99.90;;;;;;5038573;28;20406;-72
2021/10/12 03:18:32;;;;;;;8.80;3.85;;;9.10;99.90;;;;;;5038437;28;20029;-72
2021/10/12 03:21:00;;;;;;;10.93;3.97;;;9.00;99.90;;;;;;5037650;28;20330;-71
2021/10/12 03:23:28;;;;;;;11.25;3.70;;;9.10;99.90;;;;;;5037032;28;20358;-71
2021/10/12 03:25:56;;;;;;;9.32;3.58;;;9.10;99.90;;;;;;5037976;28;20402;-72
2021/10/12 03:28:23;;;;;;;8.07;3.92;;;9.10;99.90;;;;;;5037346;28;20036;-72
2021/10/12 03:30:51;;;;;;;8.38;3.35;;;9.10;99.90;;;;;;5037681;28;20017;-72
2021/10/12 03:33:19;;;;;;;8.00;3.75;;;9.10;99.90;;;;;;5036352;28;20022;-71
2021/10/12 03:35:55;;;;;;;8.45;3.42;;;9.10;99.90;;;;;;5037321;28;20018;-72
2021/10/12 03:38:28;;;;;;;9.80;3.42;;;9.10;99.90;;;;;;5037468;28;20365;-72
2021/10/12 03:40:56;;;;;;;8.93;3.08;;;9.10;99.90;;;;;;5037757;28;20025;-71
2021/10/12 03:43:23;;;;;;;9.07;3.28;;;9.10;99.90;;;;;;5037163;28;20026;-72
2021/10/12 03:45:51;;;;;;;10.50;4.07;;;9.10;99.90;;;;;;5037697;28;20064;-71
2021/10/12 03:48:18;;;;;;;7.72;3.00;;;9.00;99.90;;;;;;5038360;28;20477;-71
2021/10/12 03:50:45;;;;;;;9.02;3.08;;;9.00;99.90;;;;;;5038272;28;20059;-71
2021/10/12 03:53:12;;;;;;;10.35;3.03;;;9.00;99.90;;;;;;5037604;28;20024;-72
2021/10/12 03:55:40;;;;;;;6.93;2.97;;;9.00;99.90;;;;;;5036809;28;20409;-72
2021/10/12 03:58:07;;;;;;;5.45;2.85;;;9.00;99.90;;;;;;5037896;28;20333;-72
2021/10/12 04:00:34;;;;;;;8.55;3.10;;;9.10;99.90;;;;;;5037842;28;20025;-71
2021/10/12 04:03:02;;;;;;;6.20;2.45;;;9.10;99.90;;;;;;5037506;28;20045;-72
2021/10/12 04:05:30;;;;;;;8.43;3.17;;;9.10;99.90;;;;;;5037517;28;20030;-72
2021/10/12 04:07:57;;;;;;;7.45;2.78;;;9.10;99.90;;;;;;5036734;28;20060;-71
2021/10/12 04:10:24;;;;;;;9.00;2.60;;;9.10;99.90;;;;;;5037059;28;20056;-72
2021/10/12 04:12:52;;;;;;;11.23;2.88;;;9.10;99.90;;;;;;5036714;28;20030;-72
2021/10/12 04:15:19;;;;;;;8.68;2.92;;;9.10;99.90;;;;;;5036031;28;20314;-72
2021/10/12 04:17:48;;;;;;;5.15;2.53;;;9.10;99.90;;;;;;5036921;28;20028;-72
2021/10/12 04:20:16;;;;;;;9.30;2.72;;;9.10;99.90;;;;;;5036607;28;20022;-72
2021/10/12 04:22:43;;;;;;;16.85;3.53;;;9.10;99.90;;;;;;5036578;28;20103;-72
2021/10/12 04:25:11;;;;;;;6.65;3.22;;;9.10;99.90;;;;;;5037281;28;20026;-72
2021/10/12 04:27:39;;;;;;;6.72;2.35;;;9.10;99.90;;;;;;5035373;28;20032;-72
2021/10/12 04:30:07;;;;;;;7.75;2.67;;;9.10;99.90;;;;;;5036351;28;20037;-71
2021/10/12 04:32:34;;;;;;;10.18;3.15;;;9.00;99.90;;;;;;5036315;28;20361;-72
2021/10/12 04:35:02;;;;;;;7.95;2.75;;;9.00;99.90;;;;;;5037509;28;20053;-71
2021/10/12 04:37:30;;;;;;;9.15;2.85;;;9.00;99.90;;;;;;5037361;28;20120;-69
2021/10/12 04:39:58;;;;;;;8.85;2.65;;;9.00;99.90;;;;;;5037342;28;20029;-69
2021/10/12 04:42:26;;;;;;;9.75;3.20;;;9.00;99.90;;;;;;5037272;28;20060;-69
2021/10/12 04:44:54;;;;;;;12.95;3.00;;;9.00;99.90;;;;;;5036363;28;20051;-69
2021/10/12 04:47:22;;;;;;;5.53;2.78;;;9.00;99.90;;;;;;5037684;28;20033;-69
2021/10/12 04:49:50;;;;;;;13.55;2.83;;;9.00;99.90;;;;;;5036363;28;20086;-69
2021/10/12 04:52:17;;;;;;;6.50;2.28;;;9.00;99.90;;;;;;5036837;28;20044;-69
2021/10/12 04:54:44;;;;;;;10.05;3.05;;;9.00;99.90;;;;;;5036443;28;20014;-71
2021/10/12 04:57:12;;;;;;;11.30;3.00;;;9.00;99.90;;;;;;5036754;28;20036;-72
2021/10/12 04:59:39;;;;;;;11.15;2.90;;;9.00;99.90;;;;;;5035143;28;20326;-72
2021/10/12 05:02:07;;;;;;;12.93;3.55;;;9.10;99.90;;;;;;5036205;28;20022;-71
2021/10/12 05:04:35;;;;;;;6.25;2.78;;;9.00;99.90;;;;;;5036146;28;20434;-71
2021/10/12 05:07:02;;;;;;;15.07;3.08;;;9.10;99.90;;;;;;5039178;28;20369;-71
2021/10/12 05:09:30;;;;;;;11.18;3.42;;;9.10;99.90;;;;;;5040495;28;20018;-71
2021/10/12 05:11:58;;;;;;;8.80;3.45;;;9.10;99.90;;;;;;5039469;28;20029;-71
2021/10/12 05:14:25;;;;;;;10.25;3.85;;;9.10;99.90;;;;;;5040888;28;20068;-71
2021/10/12 05:16:55;;;;;;;14.45;4.03;;;9.10;99.90;;;;;;5040837;28;20421;-71
2021/10/12 05:19:24;;;;;;;11.05;3.60;;;9.10;99.90;;;;;;5040850;28;20021;-71
2021/10/12 05:21:51;;;;;;;12.00;4.35;;;9.10;99.90;;;;;;5041224;28;20040;-71
2021/10/12 05:24:19;;;;;;;6.22;3.00;;;9.20;99.90;;;;;;5040706;28;20040;-71
2021/10/12 05:26:46;;;;;;;9.68;4.68;;;9.20;99.90;;;;;;5040587;28;20055;-71
2021/10/12 05:29:14;;;;;;;8.27;3.38;;;9.20;99.90;;;;;;5041300;28;20026;-71
2021/10/12 05:31:42;;;;;;;8.30;4.20;;;9.20;99.90;;;;;;5040114;28;20071;-71
2021/10/12 05:34:09;;;;;;;13.98;5.57;;;9.20;99.90;;;;;;5038927;28;20021;-72
2021/10/12 05:36:36;;;;;;;11.02;4.22;;;9.20;99.90;;;;;;5039575;28;20022;-72
2021/10/12 05:39:04;;;;;;;5.68;3.05;;;9.20;99.90;;;;;;5038591;28;20031;-72
2021/10/12 05:41:32;;;;;;;12.85;4.13;;;9.20;99.90;;;;;;5039467;28;20021;-71
2021/10/12 05:43:59;;;;;;;8.95;2.88;;;9.20;99.90;;;;;;5040014;28;20109;-72
2021/10/12 05:46:27;;;;;;;9.93;3.70;;;9.20;99.90;;;;;;5038224;28;20109;-72
2021/10/12 05:48:56;;;;;;;6.63;3.75;;;9.20;99.90;;;;;;5039945;28;20021;-72
2021/10/12 05:51:25;;;;;;;11.75;5.15;;;9.20;99.90;;;;;;5039170;28;20024;-72
2021/10/12 05:53:55;;;;;;;13.85;4.28;;;9.20;99.90;;;;;;5039695;28;20101;-72
2021/10/12 05:56:26;;;;;;;6.35;3.38;;;9.20;99.90;;;;;;5039792;28;20036;-72
2021/10/12 06:02:00;;;;;;;8.48;3.50;;;9.20;99.90;;;;;;5040145;28;20040;-72
2021/10/12 06:04:28;;;;;;;10.68;4.50;;;9.20;99.90;;;;;;5039744;28;20349;-74
2021/10/12 06:07:01;;;;;;;12.77;3.17;;;9.20;99.90;;;;;;5039639;28;20369;-71
2021/10/12 06:09:29;;;;;;;8.45;3.28;;;9.20;99.90;;;;;;5040565;28;20305;-72
2021/10/12 06:11:57;;;;;;;6.47;3.22;;;9.20;99.90;;;;;;5038774;28;20432;-72
2021/10/12 06:14:25;;;;;;;6.50;3.55;;;9.20;99.90;;;;;;5039223;28;20021;-72
2021/10/12 06:16:52;;;;;;;11.88;3.90;;;9.20;99.90;;;;;;5038838;28;20032;-72
2021/10/12 06:19:21;;;;;;;11.98;3.65;;;9.20;99.90;;;;;;5038739;28;20029;-72
2021/10/12 06:21:49;;;;;;;9.27;3.88;;;9.30;99.90;;;;;;5039550;28;20318;-72
2021/10/12 06:24:17;;;;;;;7.40;3.83;;;9.30;99.90;;;;;;5038781;28;20083;-72
2021/10/12 06:26:45;;;;;;;8.73;3.55;;;9.30;99.90;;;;;;5037381;28;20053;-72
2021/10/12 06:29:13;;;;;;;16.55;4.50;;;9.30;99.90;;;;;;5038609;28;20382;-70
2021/10/12 06:31:41;;;;;;;8.23;3.67;;;9.30;99.90;;;;;;5038559;28;20052;-70
2021/10/12 06:34:10;;;;;;;8.45;3.72;;;9.30;99.90;;;;;;5039152;28;20053;-70
2021/10/12 06:36:41;;;;;;;8.43;3.83;;;9.30;99.90;;;;;;5039484;28;20030;-69
2021/10/12 06:39:10;;;;;;;10.13;3.88;;;9.30;99.90;;;;;;5039261;28;20017;-70
2021/10/12 06:41:37;;;;;;;10.30;4.25;;;9.30;99.90;;;;;;5038187;28;20373;-69
2021/10/12 06:44:05;;;;;;;11.85;4.43;;;9.30;99.90;;;;;;5039659;28;20025;-69
2021/10/12 06:46:33;;;;;;;7.90;4.32;;;9.30;99.90;;;;;;5039616;28;20025;-69
2021/10/12 06:49:01;;;;;;;9.40;4.43;;;9.30;99.90;;;;;;5039628;28;20464;-69
2021/10/12 06:51:28;;;;;;;11.57;4.93;;;9.30;99.90;;;;;;5039090;28;20030;-69
2021/10/12 06:53:56;;;;;;;10.55;4.45;;;9.30;99.90;;;;;;5039199;28;20072;-69
2021/10/12 06:56:24;;;;;;;10.25;3.90;;;9.30;99.90;;;;;;5037381;28;20022;-70
2021/10/12 06:58:52;;;;;;;8.82;3.92;;;9.30;99.90;;;;;;5038587;28;20414;-70
2021/10/12 07:01:20;;;;;;;13.70;4.65;;;9.30;99.90;;;;;;5036814;28;20025;-69
2021/10/12 07:03:48;;;;;;;8.52;3.33;;;9.30;99.90;;;;;;5037870;28;20057;-69
2021/10/12 07:06:16;;;;;;;12.88;3.95;;;9.20;99.90;;;;;;5038418;28;20018;-70
2021/10/12 07:08:44;;;;;;;14.70;3.70;;;9.30;99.90;;;;;;5038096;28;20029;-70
2021/10/12 07:11:12;;;;;;;6.45;3.85;;;9.30;99.90;;;;;;5037674;28;20017;-72
2021/10/12 07:13:39;;;;;;;7.82;3.47;;;9.20;99.90;;;;;;5037947;28;20021;-72
2021/10/12 07:16:08;;;;;;;6.60;3.90;;;9.20;99.90;;;;;;5038225;28;20017;-72
2021/10/12 07:18:35;;;;;;;7.30;3.75;;;9.20;99.90;;;;;;5038369;28;20084;-69
2021/10/12 07:21:03;;;;;;;9.15;4.53;;;9.20;99.90;;;;;;5039044;28;20025;-69
2021/10/12 07:23:31;;;;;;;12.35;4.40;;;9.20;99.90;;;;;;5038523;28;20044;-69
2021/10/12 07:25:58;;;;;;;5.63;2.85;;;9.20;99.90;;;;;;5038447;28;20025;-72
2021/10/12 07:28:26;;;;;;;8.40;3.00;;;9.20;99.90;;;;;;5037929;28;20072;-72
2021/10/12 07:30:53;;;;;;;4.63;3.20;;;9.20;99.90;;;;;;5038313;28;20087;-71
2021/10/12 07:33:21;;;;;;;5.85;3.63;;;9.20;99.90;;;;;;5038750;28;20017;-71
2021/10/12 07:35:52;;;;;;;10.45;4.88;;;9.20;99.90;;;;;;5037321;28;20053;-71
2021/10/12 07:38:20;;;;;;;9.02;3.65;;;9.20;99.90;;;;;;5037870;28;20022;-71
2021/10/12 07:40:48;;;;;;;5.80;3.80;;;9.20;99.90;;;;;;5037790;28;20388;-71
2021/10/12 07:43:16;;;;;;;6.53;3.60;;;9.20;99.90;;;;;;5037236;28;20060;-72
2021/10/12 07:45:45;;;;;;;10.75;3.42;;;9.20;99.90;;;;;;5037697;28;20317;-72
2021/10/12 07:48:13;;;;;;;5.85;2.80;;;9.20;99.90;;;;;;5037481;28;20029;-71
2021/10/12 07:50:41;;;;;;;8.20;3.50;;;9.20;99.90;;;;;;5037061;28;20033;-71
2021/10/12 07:53:09;;;;;;;8.60;4.38;;;9.30;99.90;;;;;;5037549;28;20029;-72
2021/10/12 07:58:08;;;;;;;9.90;4.50;;;9.40;99.90;;;;;;5037245;28;20060;-69
2021/10/12 08:00:36;;;;;;;10.90;4.50;;;9.40;99.90;;;;;;5036194;28;20425;-69
2021/10/12 08:03:04;;;;;;;6.70;3.80;;;9.50;99.90;;;;;;5037597;28;20053;-69
2021/10/12 08:05:32;;;;;;;4.45;2.05;;;9.60;99.90;;;;;;5037697;28;20032;-69
2021/10/12 08:08:00;;;;;;;5.95;2.08;;;9.60;99.90;;;;;;5037604;28;20028;-69
2021/10/12 08:10:27;;;;;;;4.35;1.77;;;9.80;99.90;;;;;;5038274;28;20071;-69
2021/10/12 08:13:00;;;;;;;2.92;1.48;;;9.80;99.90;;;;;;5037922;28;20025;-66
2021/10/12 08:15:39;;;;;;;2.47;1.05;;;9.90;99.90;;;;;;5037543;28;20048;-66
2021/10/12 08:18:18;;;;;;;3.08;1.60;;;9.90;99.90;;;;;;5037995;28;20025;-66
2021/10/12 08:20:48;;;;;;;3.53;1.30;;;10.00;99.90;;;;;;5037173;28;20025;-66
2021/10/12 08:23:16;;;;;;;3.25;1.50;;;10.00;99.90;;;;;;5037098;28;20033;-67
2021/10/12 08:25:45;;;;;;;5.28;1.50;;;10.00;99.90;;;;;;5037036;28;20021;-67
2021/10/12 08:28:12;;;;;;;1.27;0.63;;;10.00;99.90;;;;;;5038898;28;20026;-67
2021/10/12 08:30:40;;;;;;;1.13;0.70;;;9.90;99.90;;;;;;5040727;28;20318;-67
2021/10/12 08:33:08;;;;;;;1.80;1.10;;;10.00;99.90;;;;;;5042239;28;20022;-67
2021/10/12 08:35:36;;;;;;;2.97;0.80;;;9.90;99.90;;;;;;5042186;28;20170;-67
2021/10/12 08:38:04;;;;;;;1.48;0.47;;;9.90;99.90;;;;;;5043410;28;20013;-68
2021/10/12 08:40:31;;;;;;;3.10;0.70;;;10.00;99.90;;;;;;5040864;28;20029;-67
2021/10/12 08:43:00;;;;;;;1.40;0.70;;;10.10;99.90;;;;;;5045136;28;20029;-67
2021/10/12 08:45:27;;;;;;;1.75;0.73;;;10.20;99.90;;;;;;5046641;28;20021;-67
2021/10/12 08:47:54;;;;;;;1.60;0.75;;;10.20;99.90;;;;;;5041794;28;20032;-67
2021/10/12 08:50:24;;;;;;;3.15;0.80;;;10.30;99.90;;;;;;5042472;28;20064;-67
2021/10/12 08:52:52;;;;;;;1.50;0.80;;;10.30;99.90;;;;;;5042592;28;20104;-66
2021/10/12 08:55:19;;;;;;;2.97;1.98;;;10.40;99.90;;;;;;5039301;28;20394;-67
2021/10/12 08:57:47;;;;;;;0.20;0.17;;;10.40;99.90;;;;;;5040480;28;20025;-67
2021/10/12 09:00:17;;;;;;;1.13;0.43;;;10.30;99.90;;;;;;5041157;28;20025;-67
2021/10/12 09:03:16;;;;;;;0.43;0.32;;;10.20;99.90;;;;;;5041479;28;20306;-67
2021/10/12 09:06:02;;;;;;;0.95;0.38;;;10.10;99.90;;;;;;5041037;28;20071;-67
2021/10/12 09:08:32;;;;;;;1.50;0.20;;;9.90;99.90;;;;;;5041053;28;20070;-67
2021/10/12 09:11:00;;;;;;;0.90;0.20;;;9.90;99.90;;;;;;5041026;28;20413;-67
2021/10/12 09:13:28;;;;;;;1.13;0.20;;;9.90;99.90;;;;;;5041495;28;20022;-67
2021/10/12 09:16:05;;;;;;;2.65;0.20;;;9.90;99.90;;;;;;5040864;28;20405;-67
2021/10/12 09:18:53;;;;;;;1.17;0.25;;;10.00;99.90;;;;;;5039829;28;20123;-67
2021/10/12 09:21:25;;;;;;;1.38;0.22;;;10.00;99.90;;;;;;5039988;28;20021;-67
2021/10/12 09:24:11;;;;;;;3.20;0.30;;;9.90;99.90;;;;;;5040404;28;20108;-67
2021/10/12 09:26:48;;;;;;;0.40;0.20;;;9.90;99.90;;;;;;5039757;28;20027;-67
2021/10/12 09:29:39;;;;;;;2.20;0.25;;;10.00;99.90;;;;;;5039694;28;20041;-67
2021/10/12 09:32:08;;;;;;;1.65;0.30;;;10.10;99.90;;;;;;5040290;28;20053;-67
2021/10/12 09:34:37;;;;;;;4.70;1.20;;;10.10;99.90;;;;;;5038756;28;20017;-67
2021/10/12 09:37:06;;;;;;;2.63;0.57;;;10.30;99.90;;;;;;5040155;28;20417;-67
2021/10/12 09:39:49;;;;;;;1.67;0.30;;;10.40;99.90;;;;;;5040176;28;20033;-67
2021/10/12 09:42:21;;;;;;;1.08;0.50;;;10.60;99.90;;;;;;5040484;28;20100;-67
2021/10/12 09:44:57;;;;;;;5.35;0.65;;;10.90;99.90;;;;;;5040497;28;20323;-67
2021/10/12 09:47:27;;;;;;;1.02;0.20;;;11.00;99.90;;;;;;5040295;28;20109;-67
2021/10/12 09:50:13;;;;;;;3.55;0.70;;;11.20;99.90;;;;;;5041193;28;20057;-67
2021/10/12 09:52:45;;;;;;;1.77;0.20;;;11.30;99.90;;;;;;5039807;28;20028;-66
2021/10/12 09:55:15;;;;;;;2.42;0.30;;;11.40;99.90;;;;;;5040749;28;20026;-67
2021/10/12 09:57:43;;;;;;;1.58;0.30;;;11.50;99.90;;;;;;5040067;28;20032;-67
2021/10/12 10:00:13;;;;;;;3.97;1.00;;;11.40;99.90;;;;;;5039803;28;20469;-67
2021/10/12 10:02:40;;;;;;;1.92;0.30;;;11.50;99.90;;;;;;5039041;28;20029;-67
2021/10/12 10:05:09;;;;;;;6.30;0.65;;;11.50;99.90;;;;;;5038799;28;20073;-67
2021/10/12 10:07:52;;;;;;;4.28;0.40;;;11.60;99.90;;;;;;5039087;28;20025;-66
2021/10/12 10:10:21;;;;;;;1.75;0.43;;;11.60;99.90;;;;;;5038829;28;20037;-67
2021/10/12 10:12:49;;;;;;;3.53;0.50;;;11.70;99.90;;;;;;5039346;28;20017;-67
2021/10/12 10:15:16;;;;;;;2.00;0.28;;;11.80;99.90;;;;;;5038931;28;20049;-67
2021/10/12 10:17:47;;;;;;;5.90;1.38;;;11.80;99.90;;;;;;5038721;28;20053;-66
2021/10/12 10:20:15;;;;;;;0.65;0.20;;;11.90;99.90;;;;;;5038427;28;20079;-67
2021/10/12 10:22:49;;;;;;;4.18;0.93;;;12.00;99.90;;;;;;5039596;28;20321;-68
2021/10/12 10:25:34;;;;;;;2.60;0.50;;;12.10;99.90;;;;;;5039714;28;20059;-67
2021/10/12 10:28:25;;;;;;;4.53;0.65;;;12.00;99.90;;;;;;5038236;28;20433;-66
2021/10/12 10:30:54;;;;;;;5.75;0.57;;;12.00;99.90;;;;;;5039503;28;20109;-67
2021/10/12 10:33:34;;;;;;;3.00;0.55;;;11.80;99.90;;;;;;5039352;28;20321;-67
2021/10/12 10:36:03;;;;;;;4.20;1.00;;;11.70;99.90;;;;;;5039841;28;20021;-67
2021/10/12 10:38:36;;;;;;;8.65;0.80;;;11.50;99.90;;;;;;5039546;28;20025;-67
2021/10/12 10:41:08;;;;;;;3.35;0.57;;;11.50;99.90;;;;;;5038633;28;20025;-69
2021/10/12 10:43:51;;;;;;;3.13;0.50;;;11.40;99.90;;;;;;5038980;28;20022;-67
2021/10/12 10:49:07;;;;;;;3.55;0.50;;;11.40;99.90;;;;;;5038380;28;20299;-68
2021/10/12 10:52:02;;;;;;;2.53;0.30;;;11.40;99.90;;;;;;5036999;28;20028;-68
2021/10/12 10:54:43;;;;;;;4.78;0.80;;;11.40;99.90;;;;;;5038554;28;20101;-67
2021/10/12 10:57:19;;;;;;;4.40;0.95;;;11.50;99.90;;;;;;5038503;28;20027;-68
2021/10/12 11:00:07;;;;;;;1.48;0.45;;;11.50;99.90;;;;;;5036907;28;20030;-67
2021/10/12 11:02:35;;;;;;;7.13;1.30;;;11.60;99.90;;;;;;5037665;28;20048;-67
2021/10/12 11:05:03;;;;;;;5.85;1.27;;;11.70;99.90;;;;;;5038091;28;20045;-66
2021/10/12 11:07:31;;;;;;;7.97;0.73;;;12.00;99.90;;;;;;5038933;28;20056;-66
2021/10/12 11:09:59;;;;;;;2.70;0.60;;;12.20;99.90;;;;;;5037689;28;20421;-67
2021/10/12 11:12:31;;;;;;;2.97;0.50;;;12.40;99.90;;;;;;5038872;28;20017;-67
2021/10/12 11:15:08;;;;;;;11.07;5.57;;;12.60;99.90;;;;;;5038629;28;20062;-67
2021/10/12 11:17:36;;;;;;;4.13;0.75;;;12.80;99.90;;;;;;5038495;28;20105;-68
2021/10/12 11:20:12;;;;;;;1.20;0.40;;;12.90;99.90;;;;;;5038437;28;20022;-67
2021/10/12 11:22:41;;;;;;;5.85;0.68;;;12.90;99.90;;;;;;5038118;28;20025;-67
2021/10/12 11:25:10;;;;;;;2.08;0.43;;;12.90;99.90;;;;;;5037503;28;20443;-68
2021/10/12 11:27:42;;;;;;;4.88;1.10;;;12.90;99.90;;;;;;5037316;28;20116;-67
2021/10/12 11:30:13;;;;;;;3.53;0.70;;;12.80;99.90;;;;;;5037545;28;20101;-68
2021/10/12 11:32:41;;;;;;;11.27;2.22;;;12.70;99.90;;;;;;5037584;28;20028;-67
2021/10/12 11:35:13;;;;;;;3.30;0.70;;;12.60;99.90;;;;;;5037262;28;20075;-66
2021/10/12 11:37:56;;;;;;;7.45;0.60;;;12.50;99.90;;;;;;5037752;28;20063;-68
2021/10/12 11:40:27;;;;;;;3.22;0.50;;;12.40;99.90;;;;;;5037315;28;20102;-67
2021/10/12 11:42:59;;;;;;;4.60;0.50;;;12.40;99.90;;;;;;5037732;28;20025;-67
2021/10/12 11:45:27;;;;;;;2.30;0.85;;;12.40;99.90;;;;;;5038123;28;20104;-67
2021/10/12 11:47:55;;;;;;;2.55;0.70;;;12.50;99.90;;;;;;5038204;28;20049;-76
2021/10/12 11:50:23;;;;;;;5.60;0.80;;;12.50;99.90;;;;;;5038069;28;20025;-68
2021/10/12 11:52:53;;;;;;;2.22;0.60;;;12.70;99.90;;;;;;5038415;28;20029;-67
2021/10/12 11:55:27;;;;;;;2.55;0.60;;;12.90;99.90;;;;;;5037825;28;20093;-67
2021/10/12 11:57:54;;;;;;;6.85;0.68;;;13.10;99.90;;;;;;5038197;28;20025;-68
2021/10/12 12:00:39;;;;;;;2.55;0.55;;;13.20;99.90;;;;;;5038138;28;20029;-67
2021/10/12 12:03:20;;;;;;;1.83;0.38;;;13.30;99.90;;;;;;5037440;28;20438;-67
2021/10/12 12:05:55;;;;;;;1.95;0.35;;;13.10;99.90;;;;;;5036975;28;20025;-67
2021/10/12 12:08:24;;;;;;;2.95;0.40;;;12.90;99.90;;;;;;5038193;28;20037;-67
2021/10/12 12:10:55;;;;;;;0.88;0.25;;;12.60;99.90;;;;;;5037843;28;20029;-67
2021/10/12 12:13:27;;;;;;;3.28;0.30;;;12.20;99.90;;;;;;5038001;28;20291;-67
2021/10/12 12:15:55;;;;;;;0.50;0.20;;;12.00;99.90;;;;;;5037362;28;20136;-67
2021/10/12 12:18:24;;;;;;;2.70;0.30;;;11.80;99.90;;;;;;5037540;28;20029;-67
2021/10/12 12:21:00;;;;;;;0.35;0.10;;;11.80;99.90;;;;;;5037700;28;20338;-67
2021/10/12 12:23:32;;;;;;;1.75;0.30;;;11.80;99.90;;;;;;5036950;28;20111;-67
2021/10/12 12:25:59;;;;;;;1.83;0.57;;;11.80;99.90;;;;;;5037137;28;20033;-68
2021/10/12 12:28:27;;;;;;;2.45;0.43;;;11.80;99.90;;;;;;5036442;28;20025;-67
2021/10/12 12:30:55;;;;;;;0.88;0.30;;;11.80;99.90;;;;;;5035482;28;20095;-68
2021/10/12 12:33:23;;;;;;;0.60;0.30;;;11.80;99.90;;;;;;5036734;28;20025;-67
2021/10/12 12:35:53;;;;;;;0.70;0.20;;;11.80;99.90;;;;;;5036521;28;20068;-68
2021/10/12 12:38:34;;;;;;;0.75;0.30;;;11.80;99.90;;;;;;5036922;28;20096;-67
2021/10/12 12:41:02;;;;;;;1.17;0.30;;;11.80;99.90;;;;;;5035555;28;20021;-67
2021/10/12 12:43:32;;;;;;;2.28;0.40;;;11.70;99.90;;;;;;5038004;28;20057;-67
2021/10/12 12:46:10;;;;;;;1.40;0.40;;;11.60;99.90;;;;;;5038784;28;20440;-67
2021/10/12 12:48:40;;;;;;;0.93;0.32;;;11.60;99.90;;;;;;5036984;28;20029;-67
2021/10/12 12:51:09;;;;;;;1.17;0.30;;;11.50;99.90;;;;;;5036292;28;20100;-67
2021/10/12 12:53:45;;;;;;;2.92;0.50;;;11.40;99.90;;;;;;5036803;28;20031;-67
2021/10/12 12:56:17;;;;;;;1.95;0.50;;;11.30;99.90;;;;;;5036174;28;20028;-67
2021/10/12 12:58:47;;;;;;;2.80;0.30;;;11.10;99.90;;;;;;5036984;28;20034;-67
2021/10/12 13:01:17;;;;;;;6.22;0.75;;;11.00;99.90;;;;;;5037086;28;20018;-68
2021/10/12 13:03:54;;;;;;;2.58;0.30;;;10.90;99.90;;;;;;5037105;28;20350;-68
2021/10/12 13:06:22;;;;;;;0.82;0.30;;;10.90;99.90;;;;;;5037033;28;20053;-68
2021/10/12 13:08:55;;;;;;;1.98;0.40;;;10.80;99.90;;;;;;5037615;28;20068;-68
2021/10/12 13:11:34;;;;;;;1.40;0.47;;;10.80;99.90;;;;;;5036374;28;20080;-68